createdAt,value
2023-01-25T00:01:06.452Z,103367.00
2023-01-25T00:03:33.247Z,103353.00
2023-01-25T00:06:01.698Z,103341.00
2023-01-25T00:08:28.835Z,103356.00
2023-01-25T00:10:57.624Z,103334.00
2023-01-25T00:13:25.329Z,103331.00
2023-01-25T00:15:52.029Z,103333.00
2023-01-25T00:18:18.831Z,103328.00
2023-01-25T00:20:46.309Z,103320.00
2023-01-25T00:23:13.131Z,103311.00
2023-01-25T00:25:39.918Z,103306.00
2023-01-25T00:28:06.742Z,103288.00
2023-01-25T00:30:33.614Z,103292.00
2023-01-25T00:33:16.550Z,103286.00
2023-01-25T00:35:45.425Z,103283.00
2023-01-25T00:38:33.654Z,103274.00
2023-01-25T00:41:00.560Z,103264.00
2023-01-25T00:43:27.346Z,103254.00
2023-01-25T00:46:01.347Z,103260.00
2023-01-25T00:48:28.053Z,103248.00
2023-01-25T00:50:54.791Z,103252.00
2023-01-25T00:53:21.597Z,103253.00
2023-01-25T00:55:54.603Z,103239.00
2023-01-25T00:58:21.542Z,103244.00
2023-01-25T01:00:48.422Z,103239.00
2023-01-25T01:03:15.991Z,103231.00
2023-01-25T01:05:42.782Z,103245.00
2023-01-25T01:08:09.553Z,103254.00
2023-01-25T01:10:36.543Z,103259.00
2023-01-25T01:13:03.351Z,103266.00
2023-01-25T01:15:30.158Z,103256.00
2023-01-25T01:17:56.926Z,103265.00
2023-01-25T01:20:23.694Z,103268.00
2023-01-25T01:22:55.309Z,103252.00
2023-01-25T01:25:22.172Z,103248.00
2023-01-25T01:27:48.985Z,103251.00
2023-01-25T01:30:16.254Z,103249.00
2023-01-25T01:32:43.107Z,103244.00
2023-01-25T01:35:10.284Z,103251.00
2023-01-25T01:37:37.164Z,103241.00
2023-01-25T01:40:04.127Z,103237.00
2023-01-25T01:42:30.876Z,103239.00
2023-01-25T01:44:57.629Z,103238.00
2023-01-25T01:47:45.873Z,103247.00
2023-01-25T01:50:23.568Z,103239.00
2023-01-25T01:52:51.003Z,103235.00
2023-01-25T01:55:24.080Z,103232.00
2023-01-25T01:57:58.073Z,103244.00
2023-01-25T02:00:34.288Z,103230.00
2023-01-25T02:03:01.673Z,103236.00
2023-01-25T02:05:47.129Z,103230.00
2023-01-25T02:08:15.642Z,103234.00
2023-01-25T02:10:44.608Z,103228.00
2023-01-25T02:13:11.463Z,103228.00
2023-01-25T02:15:49.677Z,103230.00
2023-01-25T02:18:18.784Z,103229.00
2023-01-25T02:20:50.384Z,103219.00
2023-01-25T02:23:51.343Z,103223.00
2023-01-25T02:26:21.827Z,103215.00
2023-01-25T02:28:56.211Z,103218.00
2023-01-25T02:31:23.176Z,103206.00
2023-01-25T02:33:50.105Z,103216.00
2023-01-25T02:36:25.702Z,103213.00
2023-01-25T02:39:02.454Z,103210.00
2023-01-25T02:41:37.683Z,103214.00
2023-01-25T02:44:10.931Z,103209.00
2023-01-25T02:46:40.588Z,103211.00
2023-01-25T02:49:09.595Z,103202.00
2023-01-25T02:51:41.069Z,103206.00
2023-01-25T02:54:10.810Z,103204.00
2023-01-25T02:56:38.547Z,103208.00
2023-01-25T02:59:05.827Z,103195.00
2023-01-25T03:01:38.878Z,103194.00
2023-01-25T03:04:06.648Z,103193.00
2023-01-25T03:06:34.870Z,103179.00
2023-01-25T03:09:04.209Z,103191.00
2023-01-25T03:11:31.129Z,103194.00
2023-01-25T03:13:58.172Z,103196.00
2023-01-25T03:16:25.142Z,103183.00
2023-01-25T03:18:55.896Z,103188.00
2023-01-25T03:21:23.760Z,103184.00
2023-01-25T03:23:58.848Z,103181.00
2023-01-25T03:26:28.476Z,103178.00
2023-01-25T03:28:55.397Z,103179.00
2023-01-25T03:31:22.298Z,103174.00
2023-01-25T03:33:49.823Z,103172.00
2023-01-25T03:36:16.728Z,103175.00
2023-01-25T03:38:43.562Z,103170.00
2023-01-25T03:41:12.281Z,103171.00
2023-01-25T03:43:39.601Z,103174.00
2023-01-25T03:46:06.644Z,103171.00
2023-01-25T03:48:33.380Z,103170.00
2023-01-25T03:51:00.777Z,103156.00
2023-01-25T03:53:30.927Z,103146.00
2023-01-25T03:56:08.827Z,103143.00
2023-01-25T03:58:38.406Z,103146.00
2023-01-25T04:01:07.707Z,103148.00
2023-01-25T04:03:34.953Z,103142.00
2023-01-25T04:06:03.002Z,103134.00
2023-01-25T04:08:30.755Z,103140.00
2023-01-25T04:11:03.492Z,103127.00
2023-01-25T04:13:30.527Z,103124.00
2023-01-25T04:15:57.491Z,103120.00
2023-01-25T04:18:24.275Z,103118.00
2023-01-25T04:20:56.674Z,103116.00
2023-01-25T04:23:26.027Z,103112.00
2023-01-25T04:26:08.259Z,103106.00
2023-01-25T04:28:35.971Z,103109.00
2023-01-25T04:31:03.686Z,103106.00
2023-01-25T04:33:30.678Z,103104.00
2023-01-25T04:35:57.605Z,103092.00
2023-01-25T04:38:24.520Z,103091.00
2023-01-25T04:40:52.460Z,103092.00
2023-01-25T04:43:20.886Z,103086.00
2023-01-25T04:45:47.819Z,103090.00
2023-01-25T04:48:15.240Z,103090.00
2023-01-25T04:50:44.160Z,103082.00
2023-01-25T04:53:12.588Z,103076.00
2023-01-25T04:55:39.911Z,103077.00
2023-01-25T04:58:07.112Z,103084.00
2023-01-25T05:00:34.088Z,103082.00
2023-01-25T05:03:00.946Z,103074.00
2023-01-25T05:05:27.750Z,103069.00
2023-01-25T05:07:54.559Z,103066.00
2023-01-25T05:10:21.358Z,103066.00
2023-01-25T05:12:48.208Z,103069.00
2023-01-25T05:15:15.896Z,103059.00
2023-01-25T05:17:42.615Z,103061.00
2023-01-25T05:20:10.524Z,103063.00
2023-01-25T05:22:37.305Z,103055.00
2023-01-25T05:25:06.350Z,103056.00
2023-01-25T05:27:33.182Z,103054.00
2023-01-25T05:30:00.067Z,103060.00
2023-01-25T05:32:26.873Z,103053.00
2023-01-25T05:34:53.657Z,103044.00
2023-01-25T05:37:21.498Z,103055.00
2023-01-25T05:39:48.663Z,103060.00
2023-01-25T05:42:18.673Z,103063.00
2023-01-25T05:44:47.537Z,103065.00
2023-01-25T05:47:17.794Z,103058.00
2023-01-25T05:49:45.289Z,103067.00
2023-01-25T05:52:17.348Z,103062.00
2023-01-25T05:54:44.570Z,103064.00
2023-01-25T05:57:13.298Z,103068.00
2023-01-25T05:59:40.155Z,103062.00
2023-01-25T06:02:07.056Z,103055.00
2023-01-25T06:04:33.892Z,103058.00
2023-01-25T06:07:00.641Z,103059.00
2023-01-25T06:09:27.407Z,103055.00
2023-01-25T06:11:54.187Z,103046.00
2023-01-25T06:14:20.962Z,103046.00
2023-01-25T06:16:47.714Z,103042.00
2023-01-25T06:19:14.626Z,103035.00
2023-01-25T06:21:41.464Z,103037.00
2023-01-25T06:24:08.559Z,103038.00
2023-01-25T06:26:35.554Z,103028.00
2023-01-25T06:29:05.279Z,103022.00
2023-01-25T06:31:32.090Z,103030.00
2023-01-25T06:34:01.087Z,103032.00
2023-01-25T06:36:28.011Z,103035.00
2023-01-25T06:38:54.736Z,103037.00
2023-01-25T06:41:22.702Z,103040.00
2023-01-25T06:43:51.499Z,103038.00
2023-01-25T06:46:19.641Z,103031.00
2023-01-25T06:48:46.437Z,103023.00
2023-01-25T06:51:15.383Z,103029.00
2023-01-25T06:53:45.603Z,103021.00
2023-01-25T06:56:19.593Z,103003.00
2023-01-25T06:58:46.331Z,103005.00
2023-01-25T07:01:26.960Z,103007.00
2023-01-25T07:03:57.408Z,102988.00
2023-01-25T07:06:26.012Z,102997.00
2023-01-25T07:08:52.916Z,103005.00
2023-01-25T07:11:19.645Z,103010.00
2023-01-25T07:13:47.732Z,103005.00
2023-01-25T07:16:18.788Z,103001.00
2023-01-25T07:18:46.119Z,103004.00
2023-01-25T07:21:21.752Z,103009.00
2023-01-25T07:23:50.411Z,102994.00
2023-01-25T07:26:25.949Z,102998.00
2023-01-25T07:28:54.411Z,102996.00
2023-01-25T07:31:21.630Z,102987.00
2023-01-25T07:33:54.156Z,102985.00
2023-01-25T07:36:22.419Z,102982.00
2023-01-25T07:38:53.286Z,102984.00
2023-01-25T07:41:20.070Z,102966.00
2023-01-25T07:43:47.119Z,102970.00
2023-01-25T07:46:14.375Z,102977.00
2023-01-25T07:48:47.351Z,102974.00
2023-01-25T07:51:30.091Z,102978.00
2023-01-25T07:54:05.141Z,102971.00
2023-01-25T07:56:37.663Z,102966.00
2023-01-25T07:59:04.898Z,102953.00
2023-01-25T08:01:34.106Z,102955.00
2023-01-25T08:04:03.175Z,102951.00
2023-01-25T08:06:39.010Z,102956.00
2023-01-25T08:09:14.777Z,102951.00
2023-01-25T08:11:42.939Z,102960.00
2023-01-25T08:14:11.333Z,102947.00
2023-01-25T08:16:38.102Z,102950.00
2023-01-25T08:19:05.484Z,102941.00
2023-01-25T08:21:34.810Z,102934.00
2023-01-25T08:24:05.608Z,102927.00
2023-01-25T08:26:33.283Z,102944.00
2023-01-25T08:29:00.220Z,102933.00
2023-01-25T08:31:31.273Z,102938.00
2023-01-25T08:33:58.980Z,102944.00
2023-01-25T08:36:27.935Z,102945.00
2023-01-25T08:39:00.026Z,102932.00
2023-01-25T08:41:29.078Z,102948.00
2023-01-25T08:43:57.016Z,102939.00
2023-01-25T08:46:27.985Z,102939.00
2023-01-25T08:48:57.566Z,102933.00
2023-01-25T08:51:25.748Z,102926.00
2023-01-25T08:53:53.896Z,102930.00
2023-01-25T08:56:21.439Z,102921.00
2023-01-25T08:58:50.643Z,102925.00
2023-01-25T09:01:20.359Z,102925.00
2023-01-25T09:03:50.594Z,102938.00
2023-01-25T09:06:19.630Z,102935.00
2023-01-25T09:08:47.080Z,102922.00
2023-01-25T09:11:21.696Z,102932.00
2023-01-25T09:13:49.248Z,102915.00
2023-01-25T09:16:30.604Z,102923.00
2023-01-25T09:19:01.725Z,102927.00
2023-01-25T09:21:29.615Z,102924.00
2023-01-25T09:24:06.088Z,102936.00
2023-01-25T09:26:40.704Z,102927.00
2023-01-25T09:29:09.363Z,102915.00
2023-01-25T09:31:43.944Z,102921.00
2023-01-25T09:34:14.052Z,102925.00
2023-01-25T09:36:40.795Z,102916.00
2023-01-25T09:39:09.247Z,102916.00
2023-01-25T09:42:14.058Z,102904.00
2023-01-25T09:45:11.679Z,102913.00
2023-01-25T09:48:31.832Z,102916.00
2023-01-25T09:51:11.181Z,102905.00
2023-01-25T09:53:47.377Z,102895.00
2023-01-25T09:56:27.759Z,102899.00
2023-01-25T09:59:03.331Z,102888.00
2023-01-25T10:01:55.711Z,102905.00
2023-01-25T10:04:39.272Z,102902.00
2023-01-25T10:07:38.532Z,102889.00
2023-01-25T10:10:16.262Z,102891.00
2023-01-25T10:12:43.009Z,102889.00
2023-01-25T10:15:19.561Z,102877.00
2023-01-25T10:17:58.318Z,102875.00
2023-01-25T10:20:47.280Z,102869.00
2023-01-25T10:23:57.225Z,102866.00
2023-01-25T10:26:33.202Z,102862.00
2023-01-25T10:29:21.720Z,102852.00
2023-01-25T10:31:53.428Z,102843.00
2023-01-25T10:34:26.112Z,102842.00
2023-01-25T10:37:01.850Z,102837.00
2023-01-25T10:39:32.644Z,102845.00
2023-01-25T10:42:04.772Z,102838.00
2023-01-25T10:44:36.981Z,102847.00
2023-01-25T10:47:27.319Z,102839.00
2023-01-25T10:49:59.170Z,102837.00
2023-01-25T10:52:32.807Z,102832.00
2023-01-25T10:55:15.746Z,102832.00
2023-01-25T10:57:51.057Z,102821.00
2023-01-25T11:00:37.909Z,102817.00
2023-01-25T11:03:05.926Z,102814.00
2023-01-25T11:05:38.156Z,102802.00
2023-01-25T11:08:32.649Z,102802.00
2023-01-25T11:11:06.563Z,102797.00
2023-01-25T11:13:33.464Z,102796.00
2023-01-25T11:16:01.402Z,102796.00
2023-01-25T11:18:33.857Z,102788.00
2023-01-25T11:21:22.108Z,102775.00
2023-01-25T11:24:17.439Z,102774.00
2023-01-25T11:26:46.751Z,102769.00
2023-01-25T11:29:20.299Z,102761.00
2023-01-25T11:31:55.523Z,102766.00
2023-01-25T11:34:27.331Z,102750.00
2023-01-25T11:37:18.948Z,102741.00
2023-01-25T11:40:34.128Z,102735.00
2023-01-25T11:43:38.599Z,102732.00
2023-01-25T11:46:18.923Z,102734.00
2023-01-25T11:49:25.525Z,102719.00
2023-01-25T11:52:08.898Z,102708.00
2023-01-25T11:54:49.808Z,102696.00
2023-01-25T11:57:41.181Z,102698.00
2023-01-25T12:00:26.687Z,102705.00
2023-01-25T12:03:51.896Z,102688.00
2023-01-25T12:07:03.952Z,102679.00
2023-01-25T12:09:58.244Z,102676.00
2023-01-25T12:12:30.599Z,102657.00
2023-01-25T12:15:18.773Z,102652.00
2023-01-25T12:18:04.548Z,102654.00
2023-01-25T12:21:08.255Z,102641.00
2023-01-25T12:23:57.716Z,102642.00
2023-01-25T12:26:40.762Z,102632.00
2023-01-25T12:29:20.997Z,102634.00
2023-01-25T12:32:03.878Z,102631.00
2023-01-25T12:34:39.674Z,102619.00
2023-01-25T12:37:20.278Z,102625.00
2023-01-25T12:40:02.602Z,102616.00
2023-01-25T12:42:40.198Z,102620.00
2023-01-25T12:45:21.999Z,102610.00
2023-01-25T12:48:01.248Z,102605.00
2023-01-25T12:50:38.686Z,102614.00
2023-01-25T12:53:24.724Z,102602.00
2023-01-25T12:55:54.338Z,102595.00
2023-01-25T12:58:49.547Z,102600.00
2023-01-25T13:01:35.998Z,102597.00
2023-01-25T13:04:35.117Z,102601.00
2023-01-25T13:07:30.574Z,102591.00
2023-01-25T13:10:17.758Z,102579.00
2023-01-25T13:13:05.526Z,102580.00
2023-01-25T13:15:41.781Z,102585.00
2023-01-25T13:18:31.022Z,102582.00
2023-01-25T13:21:01.477Z,102582.00
2023-01-25T13:23:43.784Z,102576.00
2023-01-25T13:26:23.958Z,102568.00
2023-01-25T13:28:59.581Z,102561.00
2023-01-25T13:31:51.106Z,102554.00
2023-01-25T13:34:38.981Z,102556.00
2023-01-25T13:37:30.197Z,102540.00
2023-01-25T13:40:37.843Z,102544.00
2023-01-25T13:43:19.005Z,102540.00
2023-01-25T13:45:51.025Z,102545.00
2023-01-25T13:48:22.297Z,102536.00
2023-01-25T13:50:54.599Z,102525.00
2023-01-25T13:53:26.626Z,102531.00
2023-01-25T13:55:57.721Z,102519.00
2023-01-25T13:58:46.158Z,102528.00
2023-01-25T14:01:20.074Z,102522.00
2023-01-25T14:03:56.798Z,102523.00
2023-01-25T14:06:40.383Z,102518.00
2023-01-25T14:09:20.981Z,102511.00
2023-01-25T14:11:56.463Z,102515.00
2023-01-25T14:14:33.053Z,102507.00
2023-01-25T14:17:17.902Z,102500.00
2023-01-25T14:19:51.662Z,102502.00
2023-01-25T14:22:28.175Z,102504.00
2023-01-25T14:25:09.601Z,102495.00
2023-01-25T14:27:43.005Z,102500.00
2023-01-25T14:30:30.750Z,102491.00
2023-01-25T14:33:15.988Z,102477.00
2023-01-25T14:35:55.625Z,102489.00
2023-01-25T14:38:26.280Z,102496.00
2023-01-25T14:40:58.690Z,102490.00
2023-01-25T14:43:26.845Z,102481.00
2023-01-25T14:45:53.745Z,102473.00
2023-01-25T14:48:41.872Z,102469.00
2023-01-25T14:51:21.493Z,102461.00
2023-01-25T14:53:56.865Z,102464.00
2023-01-25T14:56:31.331Z,102473.00
2023-01-25T14:59:00.033Z,102463.00
2023-01-25T15:01:41.045Z,102446.00
2023-01-25T15:04:13.244Z,102454.00
2023-01-25T15:06:50.234Z,102442.00
2023-01-25T15:09:41.312Z,102443.00
2023-01-25T15:12:16.833Z,102439.00
2023-01-25T15:14:53.561Z,102439.00
2023-01-25T15:17:47.645Z,102429.00
2023-01-25T15:20:32.648Z,102439.00
2023-01-25T15:23:26.702Z,102430.00
2023-01-25T15:25:59.362Z,102424.00
2023-01-25T15:28:34.512Z,102432.00
2023-01-25T15:31:04.200Z,102423.00
2023-01-25T15:33:32.723Z,102414.00
2023-01-25T15:35:59.517Z,102415.00
2023-01-25T15:38:26.467Z,102418.00
2023-01-25T15:40:53.329Z,102409.00
2023-01-25T15:43:20.503Z,102415.00
2023-01-25T15:45:50.604Z,102404.00
2023-01-25T15:48:27.444Z,102402.00
2023-01-25T15:50:55.563Z,102399.00
2023-01-25T15:53:22.315Z,102400.00
2023-01-25T15:55:57.317Z,102391.00
2023-01-25T15:58:35.415Z,102391.00
2023-01-25T16:01:02.989Z,102391.00
2023-01-25T16:03:30.648Z,102383.00
2023-01-25T16:06:02.380Z,102388.00
2023-01-25T16:08:29.696Z,102374.00
2023-01-25T16:10:57.354Z,102366.00
2023-01-25T16:13:25.417Z,102365.00
2023-01-25T16:15:56.461Z,102367.00
2023-01-25T16:18:23.443Z,102375.00
2023-01-25T16:20:50.491Z,102359.00
2023-01-25T16:23:17.227Z,102353.00
2023-01-25T16:25:48.262Z,102346.00
2023-01-25T16:28:16.309Z,102346.00
2023-01-25T16:30:47.073Z,102343.00
2023-01-25T16:33:13.944Z,102338.00
2023-01-25T16:35:40.725Z,102335.00
2023-01-25T16:38:11.853Z,102339.00
2023-01-25T16:40:39.764Z,102337.00
2023-01-25T16:43:06.764Z,102329.00
2023-01-25T16:45:33.553Z,102337.00
2023-01-25T16:48:01.853Z,102331.00
2023-01-25T16:50:28.839Z,102329.00
2023-01-25T16:52:56.240Z,102334.00
2023-01-25T16:55:22.981Z,102332.00
2023-01-25T16:57:51.283Z,102329.00
2023-01-25T17:00:18.645Z,102317.00
2023-01-25T17:02:58.148Z,102318.00
2023-01-25T17:05:33.540Z,102307.00
2023-01-25T17:08:00.389Z,102303.00
2023-01-25T17:10:27.200Z,102292.00
2023-01-25T17:12:53.925Z,102302.00
2023-01-25T17:15:20.679Z,102300.00
2023-01-25T17:17:47.414Z,102300.00
2023-01-25T17:20:14.824Z,102297.00
2023-01-25T17:22:42.461Z,102291.00
2023-01-25T17:25:09.316Z,102282.00
2023-01-25T17:27:36.030Z,102287.00
2023-01-25T17:30:03.044Z,102283.00
2023-01-25T17:32:29.860Z,102281.00
2023-01-25T17:34:59.046Z,102280.00
2023-01-25T17:37:26.010Z,102280.00
2023-01-25T17:39:53.514Z,102272.00
2023-01-25T17:42:22.035Z,102277.00
2023-01-25T17:44:48.810Z,102274.00
2023-01-25T17:47:15.536Z,102259.00
2023-01-25T17:49:42.283Z,102253.00
2023-01-25T17:52:09.245Z,102261.00
2023-01-25T17:54:36.269Z,102257.00
2023-01-25T17:57:03.065Z,102258.00
2023-01-25T17:59:29.800Z,102249.00
2023-01-25T18:01:56.758Z,102251.00
2023-01-25T18:04:23.548Z,102258.00
2023-01-25T18:06:50.257Z,102250.00
2023-01-25T18:09:17.044Z,102249.00
2023-01-25T18:11:43.800Z,102247.00
2023-01-25T18:14:16.629Z,102242.00
2023-01-25T18:16:44.475Z,102240.00
2023-01-25T18:19:12.126Z,102242.00
2023-01-25T18:21:40.603Z,102241.00
2023-01-25T18:24:26.086Z,102239.00
2023-01-25T18:27:00.184Z,102230.00
2023-01-25T18:29:46.763Z,102234.00
2023-01-25T18:32:15.340Z,102223.00
2023-01-25T18:34:42.400Z,102226.00
2023-01-25T18:37:17.861Z,102221.00
2023-01-25T18:39:47.044Z,102225.00
2023-01-25T18:42:13.907Z,102227.00
2023-01-25T18:44:40.769Z,102224.00
2023-01-25T18:47:10.105Z,102225.00
2023-01-25T18:49:36.869Z,102221.00
2023-01-25T18:52:11.346Z,102211.00
2023-01-25T18:54:38.935Z,102216.00
2023-01-25T18:57:06.768Z,102210.00
2023-01-25T18:59:33.589Z,102208.00
2023-01-25T19:02:00.350Z,102203.00
2023-01-25T19:04:27.579Z,102198.00
2023-01-25T19:06:57.423Z,102197.00
2023-01-25T19:09:25.432Z,102189.00
2023-01-25T19:11:52.357Z,102172.00
2023-01-25T19:14:19.220Z,102176.00
2023-01-25T19:16:46.277Z,102182.00
2023-01-25T19:19:13.350Z,102181.00
2023-01-25T19:21:40.605Z,102183.00
2023-01-25T19:24:18.704Z,102179.00
2023-01-25T19:26:47.281Z,102176.00
2023-01-25T19:29:15.152Z,102163.00
2023-01-25T19:31:42.139Z,102168.00
2023-01-25T19:34:08.989Z,102170.00
2023-01-25T19:36:38.793Z,102168.00
2023-01-25T19:39:10.068Z,102145.00
2023-01-25T19:41:38.659Z,102141.00
2023-01-25T19:44:06.685Z,102142.00
2023-01-25T19:46:37.351Z,102144.00
2023-01-25T19:49:07.944Z,102145.00
2023-01-25T19:51:39.683Z,102132.00
2023-01-25T19:54:15.600Z,102133.00
2023-01-25T19:56:48.488Z,102112.00
2023-01-25T19:59:19.493Z,102126.00
2023-01-25T20:01:46.935Z,102119.00
2023-01-25T20:04:19.755Z,102114.00
2023-01-25T20:06:47.009Z,102108.00
2023-01-25T20:09:15.948Z,102112.00
2023-01-25T20:11:43.203Z,102095.00
2023-01-25T20:14:12.567Z,102088.00
2023-01-25T20:16:39.556Z,102108.00
2023-01-25T20:19:06.434Z,102091.00
2023-01-25T20:21:33.771Z,102091.00
2023-01-25T20:24:05.905Z,102095.00
2023-01-25T20:26:39.304Z,102094.00
2023-01-25T20:29:07.428Z,102093.00
2023-01-25T20:31:46.646Z,102095.00
2023-01-25T20:34:17.648Z,102093.00
2023-01-25T20:36:46.020Z,102096.00
2023-01-25T20:39:16.516Z,102101.00
2023-01-25T20:41:44.060Z,102095.00
2023-01-25T20:44:14.682Z,102096.00
2023-01-25T20:46:43.034Z,102087.00
2023-01-25T20:49:17.443Z,102085.00
2023-01-25T20:51:45.613Z,102087.00
2023-01-25T20:54:14.688Z,102084.00
2023-01-25T20:56:42.851Z,102081.00
2023-01-25T20:59:09.883Z,102077.00
2023-01-25T21:01:37.330Z,102081.00
2023-01-25T21:04:07.506Z,102078.00
2023-01-25T21:06:35.232Z,102071.00
2023-01-25T21:09:03.567Z,102077.00
2023-01-25T21:11:30.512Z,102080.00
2023-01-25T21:13:58.376Z,102080.00
2023-01-25T21:16:25.378Z,102076.00
2023-01-25T21:18:58.474Z,102072.00
2023-01-25T21:21:30.625Z,102057.00
2023-01-25T21:24:00.017Z,102059.00
2023-01-25T21:26:33.566Z,102066.00
2023-01-25T21:29:01.988Z,102070.00
2023-01-25T21:31:32.831Z,102064.00
2023-01-25T21:34:00.734Z,102053.00
2023-01-25T21:36:27.876Z,102048.00
2023-01-25T21:38:56.105Z,102042.00
2023-01-25T21:41:26.414Z,102044.00
2023-01-25T21:44:14.651Z,102039.00
2023-01-25T21:46:46.719Z,102033.00
2023-01-25T21:49:41.372Z,102030.00
2023-01-25T21:52:08.097Z,102034.00
2023-01-25T21:54:37.038Z,102042.00
2023-01-25T21:57:08.463Z,102030.00
2023-01-25T21:59:40.721Z,102030.00
2023-01-25T22:02:13.936Z,102039.00
2023-01-25T22:04:41.049Z,102039.00
2023-01-25T22:07:09.045Z,102038.00
2023-01-25T22:09:36.193Z,102036.00
2023-01-25T22:12:03.107Z,102024.00
2023-01-25T22:14:29.879Z,102026.00
2023-01-25T22:16:56.685Z,102029.00
2023-01-25T22:19:23.510Z,102025.00
2023-01-25T22:21:50.230Z,102022.00
2023-01-25T22:24:17.478Z,102019.00
2023-01-25T22:27:02.453Z,102017.00
2023-01-25T22:29:29.909Z,102018.00
2023-01-25T22:31:57.070Z,102016.00
2023-01-25T22:34:24.022Z,102010.00
2023-01-25T22:36:50.837Z,102015.00
2023-01-25T22:39:17.555Z,102007.00
2023-01-25T22:41:44.315Z,102005.00
2023-01-25T22:44:11.386Z,102001.00
2023-01-25T22:46:38.157Z,101997.00
2023-01-25T22:49:04.948Z,101999.00
2023-01-25T22:51:32.274Z,101998.00
2023-01-25T22:54:00.145Z,101987.00
2023-01-25T22:56:31.945Z,101994.00
2023-01-25T22:59:01.493Z,101998.00
2023-01-25T23:01:34.413Z,101995.00
2023-01-25T23:04:02.444Z,101989.00
2023-01-25T23:06:34.549Z,101986.00
2023-01-25T23:09:04.882Z,101983.00
2023-01-25T23:11:37.193Z,101978.00
2023-01-25T23:14:26.760Z,101982.00
2023-01-25T23:17:14.072Z,101971.00
2023-01-25T23:19:40.966Z,101968.00
2023-01-25T23:22:07.697Z,101964.00
2023-01-25T23:24:34.461Z,101966.00
2023-01-25T23:27:01.215Z,101957.00
2023-01-25T23:29:27.971Z,101959.00
2023-01-25T23:31:54.757Z,101954.00
2023-01-25T23:34:21.569Z,101953.00
2023-01-25T23:36:48.314Z,101952.00
2023-01-25T23:39:15.203Z,101948.00
2023-01-25T23:41:41.947Z,101943.00
2023-01-25T23:44:09.738Z,101943.00
2023-01-25T23:46:36.859Z,101944.00
2023-01-25T23:49:03.776Z,101943.00
2023-01-25T23:51:30.496Z,101934.00
2023-01-25T23:53:58.313Z,101939.00
2023-01-25T23:56:25.490Z,101932.00
2023-01-25T23:58:52.253Z,101925.00
